createdAt,value
2023-07-18T00:00:20.793Z,32.07
2023-07-18T00:02:49.614Z,31.93
2023-07-18T00:05:17.928Z,31.79
2023-07-18T00:07:46.409Z,31.70
2023-07-18T00:10:15.382Z,31.63
2023-07-18T00:12:43.688Z,31.54
2023-07-18T00:15:12.655Z,31.48
2023-07-18T00:17:42.570Z,31.34
2023-07-18T00:20:14.601Z,31.20
2023-07-18T00:22:43.546Z,31.17
2023-07-18T00:25:15.163Z,31.17
2023-07-18T00:27:43.496Z,31.20
2023-07-18T00:30:16.106Z,31.19
2023-07-18T00:32:46.282Z,31.02
2023-07-18T00:35:15.859Z,30.87
2023-07-18T00:37:45.728Z,30.65
2023-07-18T00:40:17.796Z,30.51
2023-07-18T00:42:49.411Z,30.34
2023-07-18T00:45:17.848Z,30.23
2023-07-18T00:47:48.366Z,30.03
2023-07-18T00:50:18.873Z,29.90
2023-07-18T00:52:52.240Z,29.81
2023-07-18T00:55:21.710Z,29.62
2023-07-18T00:57:51.816Z,29.40
2023-07-18T01:00:24.629Z,29.27
2023-07-18T01:02:53.518Z,29.18
2023-07-18T01:05:23.028Z,29.09
2023-07-18T01:07:51.432Z,29.04
2023-07-18T01:10:25.798Z,28.97
2023-07-18T01:13:01.351Z,28.77
2023-07-18T01:15:33.348Z,28.64
2023-07-18T01:18:08.567Z,28.47
2023-07-18T01:20:38.459Z,28.34
2023-07-18T01:23:06.956Z,28.26
2023-07-18T01:25:36.240Z,28.21
2023-07-18T01:28:05.185Z,28.07
2023-07-18T01:30:33.698Z,27.98
2023-07-18T01:33:02.096Z,27.98
2023-07-18T01:35:30.459Z,27.94
2023-07-18T01:38:00.583Z,27.85
2023-07-18T01:40:29.038Z,27.76
2023-07-18T01:42:58.638Z,27.70
2023-07-18T01:45:30.034Z,27.64
2023-07-18T01:47:59.179Z,27.59
2023-07-18T01:50:27.905Z,27.55
2023-07-18T01:52:56.270Z,27.58
2023-07-18T01:55:24.592Z,27.62
2023-07-18T01:57:52.925Z,27.63
2023-07-18T02:00:22.567Z,27.58
2023-07-18T02:02:55.860Z,27.59
2023-07-18T02:05:26.986Z,27.57
2023-07-18T02:07:55.361Z,27.55
2023-07-18T02:10:24.158Z,27.56
2023-07-18T02:12:55.051Z,27.56
2023-07-18T02:15:24.188Z,27.52
2023-07-18T02:17:53.366Z,27.45
2023-07-18T02:20:21.766Z,27.36
2023-07-18T02:22:50.477Z,27.23
2023-07-18T02:25:19.697Z,27.14
2023-07-18T02:27:48.076Z,27.14
2023-07-18T02:30:16.616Z,27.15
2023-07-18T02:32:46.409Z,27.10
2023-07-18T02:35:20.247Z,27.06
2023-07-18T02:37:49.288Z,27.03
2023-07-18T02:40:19.661Z,27.00
2023-07-18T02:42:48.303Z,27.01
2023-07-18T02:45:16.633Z,26.95
2023-07-18T02:47:45.060Z,26.87
2023-07-18T02:50:13.412Z,26.76
2023-07-18T02:52:41.750Z,26.68
2023-07-18T02:55:10.505Z,26.60
2023-07-18T02:57:39.832Z,26.49
2023-07-18T03:00:20.449Z,26.49
2023-07-18T03:02:51.589Z,26.46
2023-07-18T03:05:20.824Z,26.40
2023-07-18T03:07:49.116Z,26.25
2023-07-18T03:10:17.772Z,26.17
2023-07-18T03:12:47.392Z,26.12
2023-07-18T03:15:15.724Z,26.06
2023-07-18T03:17:44.406Z,25.99
2023-07-18T03:20:21.318Z,25.87
2023-07-18T03:22:51.219Z,25.82
2023-07-18T03:25:20.142Z,25.77
2023-07-18T03:27:49.304Z,25.74
2023-07-18T03:30:18.162Z,25.68
2023-07-18T03:32:46.605Z,25.64
2023-07-18T03:35:16.077Z,25.61
2023-07-18T03:37:44.689Z,25.57
2023-07-18T03:40:17.942Z,25.53
2023-07-18T03:42:47.539Z,25.46
2023-07-18T03:45:16.256Z,25.39
2023-07-18T03:47:45.490Z,25.34
2023-07-18T03:50:16.198Z,25.34
2023-07-18T03:52:44.769Z,25.31
2023-07-18T03:55:13.350Z,25.28
2023-07-18T03:57:42.049Z,25.24
2023-07-18T04:00:15.887Z,25.18
2023-07-18T04:02:46.842Z,25.13
2023-07-18T04:05:16.705Z,25.03
2023-07-18T04:07:46.043Z,24.97
2023-07-18T04:10:15.225Z,24.91
2023-07-18T04:12:44.249Z,24.88
2023-07-18T04:15:13.721Z,24.88
2023-07-18T04:17:42.227Z,24.88
2023-07-18T04:20:11.272Z,24.83
2023-07-18T04:22:39.612Z,24.78
2023-07-18T04:25:08.900Z,24.72
2023-07-18T04:27:37.173Z,24.70
2023-07-18T04:30:05.837Z,24.65
2023-07-18T04:32:34.123Z,24.62
2023-07-18T04:35:02.405Z,24.59
2023-07-18T04:37:30.721Z,24.53
2023-07-18T04:39:58.977Z,24.48
2023-07-18T04:42:27.257Z,24.47
2023-07-18T04:44:55.518Z,24.42
2023-07-18T04:47:23.968Z,24.37
2023-07-18T04:49:52.317Z,24.30
2023-07-18T04:52:20.577Z,24.24
2023-07-18T04:54:48.840Z,24.19
2023-07-18T04:57:19.672Z,24.15
2023-07-18T04:59:48.222Z,24.11
2023-07-18T05:02:16.445Z,24.05
2023-07-18T05:04:44.731Z,23.92
2023-07-18T05:07:12.975Z,23.81
2023-07-18T05:09:41.193Z,23.74
2023-07-18T05:12:09.877Z,23.65
2023-07-18T05:14:38.144Z,23.59
2023-07-18T05:17:06.459Z,23.47
2023-07-18T05:19:34.794Z,23.37
2023-07-18T05:22:03.067Z,23.30
2023-07-18T05:24:31.328Z,23.27
2023-07-18T05:26:59.579Z,23.18
2023-07-18T05:29:27.881Z,23.18
2023-07-18T05:31:56.201Z,23.14
2023-07-18T05:34:24.863Z,23.12
2023-07-18T05:36:53.329Z,23.09
2023-07-18T05:39:21.569Z,23.07
2023-07-18T05:41:49.785Z,23.02
2023-07-18T05:44:18.480Z,23.00
2023-07-18T05:46:46.720Z,22.97
2023-07-18T05:49:16.222Z,22.97
2023-07-18T05:51:44.489Z,22.95
2023-07-18T05:54:13.090Z,22.92
2023-07-18T05:56:41.396Z,22.87
2023-07-18T05:59:10.326Z,22.85
2023-07-18T06:01:39.014Z,22.79
2023-07-18T06:04:07.382Z,22.77
2023-07-18T06:06:36.697Z,22.73
2023-07-18T06:09:05.049Z,22.71
2023-07-18T06:11:33.297Z,22.64
2023-07-18T06:14:01.800Z,22.63
2023-07-18T06:16:30.072Z,22.61
2023-07-18T06:18:58.348Z,22.57
2023-07-18T06:21:28.442Z,22.56
2023-07-18T06:24:04.740Z,22.47
2023-07-18T06:26:33.462Z,22.42
2023-07-18T06:29:01.736Z,22.37
2023-07-18T06:31:30.356Z,22.30
2023-07-18T06:33:58.650Z,22.22
2023-07-18T06:36:27.904Z,22.09
2023-07-18T06:38:56.198Z,22.08
2023-07-18T06:41:24.448Z,22.10
2023-07-18T06:43:52.661Z,22.07
2023-07-18T06:46:20.954Z,22.05
2023-07-18T06:48:49.212Z,21.97
2023-07-18T06:51:17.799Z,21.94
2023-07-18T06:53:46.961Z,21.92
2023-07-18T06:56:15.168Z,21.89
2023-07-18T06:58:43.861Z,21.82
2023-07-18T07:01:12.554Z,21.70
2023-07-18T07:03:40.900Z,21.67
2023-07-18T07:06:13.737Z,21.66
2023-07-18T07:08:42.124Z,21.67
2023-07-18T07:11:11.985Z,21.69
2023-07-18T07:13:40.454Z,21.65
2023-07-18T07:16:09.154Z,21.65
2023-07-18T07:18:37.531Z,21.55
2023-07-18T07:21:07.427Z,21.49
2023-07-18T07:23:35.650Z,21.47
2023-07-18T07:26:04.129Z,21.46
2023-07-18T07:28:32.437Z,21.44
2023-07-18T07:31:05.276Z,21.37
2023-07-18T07:33:34.124Z,21.36
2023-07-18T07:36:02.413Z,21.34
2023-07-18T07:38:30.725Z,21.23
2023-07-18T07:40:59.289Z,21.20
2023-07-18T07:43:27.551Z,21.13
2023-07-18T07:45:55.868Z,21.13
2023-07-18T07:48:24.089Z,21.14
2023-07-18T07:50:52.466Z,21.15
2023-07-18T07:53:20.786Z,21.10
2023-07-18T07:55:49.032Z,21.07
2023-07-18T07:58:17.264Z,21.06
2023-07-18T08:00:45.589Z,21.00
2023-07-18T08:03:13.906Z,20.98
2023-07-18T08:05:42.128Z,20.96
2023-07-18T08:08:12.153Z,20.92
2023-07-18T08:10:40.450Z,20.94
2023-07-18T08:13:09.597Z,20.92
2023-07-18T08:15:37.953Z,20.89
2023-07-18T08:18:06.541Z,20.88
2023-07-18T08:20:34.865Z,20.85
2023-07-18T08:23:03.284Z,20.81
2023-07-18T08:25:32.580Z,20.79
2023-07-18T08:28:01.125Z,20.77
2023-07-18T08:30:29.359Z,20.75
2023-07-18T08:32:57.733Z,20.70
2023-07-18T08:35:26.070Z,20.69
2023-07-18T08:37:55.335Z,20.68
2023-07-18T08:40:23.668Z,20.68
2023-07-18T08:42:53.739Z,20.59
2023-07-18T08:45:24.862Z,20.55
2023-07-18T08:47:58.165Z,20.52
2023-07-18T08:50:28.314Z,20.51
2023-07-18T08:52:56.611Z,20.50
2023-07-18T08:55:25.401Z,20.49
2023-07-18T08:57:53.764Z,20.42
2023-07-18T09:00:22.342Z,20.33
2023-07-18T09:02:53.339Z,20.26
2023-07-18T09:05:33.516Z,20.24
2023-07-18T09:08:03.461Z,20.24
2023-07-18T09:10:32.815Z,20.25
2023-07-18T09:13:07.011Z,20.25
2023-07-18T09:15:39.223Z,20.24
2023-07-18T09:18:11.052Z,20.23
2023-07-18T09:20:39.916Z,20.20
2023-07-18T09:23:08.326Z,20.19
2023-07-18T09:25:41.988Z,20.16
2023-07-18T09:28:16.515Z,20.08
2023-07-18T09:30:44.804Z,20.00
2023-07-18T09:33:13.041Z,19.96
2023-07-18T09:35:42.283Z,19.92
2023-07-18T09:38:11.945Z,19.90
2023-07-18T09:40:40.748Z,19.87
2023-07-18T09:43:09.340Z,19.87
2023-07-18T09:45:38.888Z,19.87
2023-07-18T09:48:09.315Z,19.88
2023-07-18T09:50:43.621Z,19.87
2023-07-18T09:53:14.470Z,19.87
2023-07-18T09:55:43.554Z,19.87
2023-07-18T09:58:14.232Z,19.83
2023-07-18T10:00:47.426Z,19.80
2023-07-18T10:03:17.371Z,19.78
2023-07-18T10:05:46.675Z,19.71
2023-07-18T10:08:15.266Z,19.67
2023-07-18T10:10:43.613Z,19.67
2023-07-18T10:13:11.872Z,19.62
2023-07-18T10:16:29.298Z,19.56
2023-07-18T10:18:58.644Z,19.53
2023-07-18T10:21:32.439Z,19.52
2023-07-18T10:24:26.170Z,19.51
2023-07-18T10:26:56.265Z,19.48
2023-07-18T10:29:24.628Z,19.44
2023-07-18T10:31:55.241Z,19.39
2023-07-18T10:34:23.929Z,19.40
2023-07-18T10:37:03.208Z,19.39
2023-07-18T10:39:41.934Z,19.35
2023-07-18T10:42:21.704Z,19.30
2023-07-18T10:44:51.018Z,19.29
2023-07-18T10:47:21.277Z,19.27
2023-07-18T10:49:49.855Z,19.25
2023-07-18T10:52:19.324Z,19.23
2023-07-18T10:54:57.312Z,19.19
2023-07-18T10:57:30.816Z,19.17
2023-07-18T11:00:01.153Z,19.12
2023-07-18T11:02:36.337Z,19.07
2023-07-18T11:05:15.657Z,19.04
2023-07-18T11:07:53.664Z,19.02
2023-07-18T11:10:22.443Z,18.98
2023-07-18T11:12:54.236Z,18.95
2023-07-18T11:15:25.444Z,18.91
2023-07-18T11:17:55.621Z,18.89
2023-07-18T11:20:24.784Z,18.84
2023-07-18T11:22:53.321Z,18.76
2023-07-18T11:25:21.588Z,18.73
2023-07-18T11:27:51.488Z,18.72
2023-07-18T11:30:24.107Z,18.68
2023-07-18T11:32:52.442Z,18.64
2023-07-18T11:35:22.691Z,18.62
2023-07-18T11:37:55.796Z,18.59
2023-07-18T11:40:27.668Z,18.59
2023-07-18T11:43:02.786Z,18.58
2023-07-18T11:45:31.407Z,18.58
2023-07-18T11:48:01.251Z,18.57
2023-07-18T11:50:31.152Z,18.56
2023-07-18T11:53:01.258Z,18.55
2023-07-18T11:55:30.073Z,18.51
2023-07-18T11:57:58.466Z,18.50
2023-07-18T12:00:28.121Z,18.47
2023-07-18T12:02:56.507Z,18.48
2023-07-18T12:05:26.555Z,18.48
2023-07-18T12:07:54.786Z,18.48
2023-07-18T12:10:24.899Z,18.48
2023-07-18T12:12:54.438Z,18.47
2023-07-18T12:15:22.649Z,18.46
2023-07-18T12:17:50.928Z,18.45
2023-07-18T12:20:19.227Z,18.43
2023-07-18T12:22:47.499Z,18.38
2023-07-18T12:25:17.330Z,18.35
2023-07-18T12:27:45.584Z,18.32
2023-07-18T12:30:14.078Z,18.33
2023-07-18T12:32:42.692Z,18.31
2023-07-18T12:35:11.325Z,18.30
2023-07-18T12:37:39.583Z,18.28
2023-07-18T12:40:09.391Z,18.26
2023-07-18T12:42:37.771Z,18.23
2023-07-18T12:45:06.475Z,18.19
2023-07-18T12:47:34.733Z,18.18
2023-07-18T12:50:03.007Z,18.15
2023-07-18T12:52:31.251Z,18.13
2023-07-18T12:55:00.029Z,18.11
2023-07-18T12:57:32.392Z,18.08
2023-07-18T13:00:01.102Z,18.07
2023-07-18T13:02:30.475Z,18.08
2023-07-18T13:04:59.107Z,18.08
2023-07-18T13:07:27.356Z,18.08
2023-07-18T13:09:55.650Z,18.09
2023-07-18T13:12:23.943Z,18.06
2023-07-18T13:14:52.189Z,18.05
2023-07-18T13:17:22.870Z,18.03
2023-07-18T13:19:51.126Z,18.05
2023-07-18T13:22:19.355Z,18.06
2023-07-18T13:24:47.590Z,18.08
2023-07-18T13:27:15.805Z,18.08
2023-07-18T13:29:44.674Z,18.08
2023-07-18T13:32:12.951Z,18.09
2023-07-18T13:34:41.205Z,18.08
2023-07-18T13:37:09.499Z,18.07
2023-07-18T13:39:37.817Z,18.08
2023-07-18T13:42:06.510Z,18.11
2023-07-18T13:44:35.347Z,18.14
2023-07-18T13:47:04.851Z,18.15
2023-07-18T13:52:05.140Z,18.20
2023-07-18T13:54:33.360Z,18.23
2023-07-18T13:57:01.583Z,18.27
2023-07-18T13:59:29.816Z,18.30
2023-07-18T14:01:58.208Z,18.35
2023-07-18T14:04:26.716Z,18.40
2023-07-18T14:06:55.175Z,18.43
2023-07-18T14:09:23.598Z,18.44
2023-07-18T14:11:51.997Z,18.45
2023-07-18T14:14:20.283Z,18.47
2023-07-18T14:16:48.804Z,18.52
2023-07-18T14:19:17.207Z,18.55
2023-07-18T14:21:45.462Z,18.57
2023-07-18T14:24:13.870Z,18.58
2023-07-18T14:26:42.146Z,18.62
2023-07-18T14:29:10.680Z,18.72
2023-07-18T14:31:40.784Z,18.82
2023-07-18T14:34:09.184Z,18.88
2023-07-18T14:36:37.454Z,18.91
2023-07-18T14:39:06.601Z,18.95
2023-07-18T14:41:35.029Z,19.01
2023-07-18T14:44:03.307Z,19.07
2023-07-18T14:46:31.596Z,19.09
2023-07-18T14:48:59.928Z,19.16
2023-07-18T14:51:28.253Z,19.23
2023-07-18T14:53:56.504Z,19.28
2023-07-18T14:56:26.640Z,19.35
2023-07-18T14:58:54.885Z,19.42
2023-07-18T15:01:23.465Z,19.50
2023-07-18T15:03:52.095Z,19.56
2023-07-18T15:06:20.710Z,19.63
2023-07-18T15:08:52.783Z,19.71
2023-07-18T15:11:21.132Z,19.78
2023-07-18T15:13:49.386Z,19.86
2023-07-18T15:16:18.760Z,19.94
2023-07-18T15:18:47.324Z,20.04
2023-07-18T15:21:15.614Z,20.08
2023-07-18T15:23:43.928Z,20.15
2023-07-18T15:26:15.556Z,20.24
2023-07-18T15:28:44.549Z,20.34
2023-07-18T15:31:12.781Z,20.41
2023-07-18T15:33:41.155Z,20.51
2023-07-18T15:36:10.510Z,20.62
2023-07-18T15:38:38.967Z,20.75
2023-07-18T15:41:07.255Z,20.86
2023-07-18T15:43:36.522Z,20.96
2023-07-18T15:46:05.524Z,21.05
2023-07-18T15:48:33.792Z,21.13
2023-07-18T15:51:02.120Z,21.20
2023-07-18T15:53:30.930Z,21.26
2023-07-18T15:55:59.198Z,21.36
2023-07-18T15:58:27.504Z,21.45
2023-07-18T16:00:58.507Z,21.58
2023-07-18T16:03:26.888Z,21.69
2023-07-18T16:05:55.425Z,21.77
2023-07-18T16:08:23.820Z,21.90
2023-07-18T16:10:52.090Z,21.98
2023-07-18T16:13:20.486Z,22.05
2023-07-18T16:15:49.088Z,22.15
2023-07-18T16:18:17.889Z,22.22
2023-07-18T16:20:46.334Z,22.31
2023-07-18T16:23:14.801Z,22.38
2023-07-18T16:25:43.175Z,22.44
2023-07-18T16:28:11.528Z,22.51
2023-07-18T16:30:39.770Z,22.59
2023-07-18T16:33:08.343Z,22.64
2023-07-18T16:35:37.337Z,22.72
2023-07-18T16:38:05.616Z,22.81
2023-07-18T16:40:34.506Z,22.79
2023-07-18T16:43:02.760Z,22.80
2023-07-18T16:45:31.012Z,22.80
2023-07-18T16:47:59.275Z,22.86
2023-07-18T16:50:27.560Z,22.97
2023-07-18T16:52:55.870Z,23.02
2023-07-18T16:55:24.202Z,23.02
2023-07-18T16:57:52.442Z,23.04
2023-07-18T17:00:20.850Z,23.17
2023-07-18T17:02:49.140Z,23.36
2023-07-18T17:05:17.525Z,23.43
2023-07-18T17:07:45.973Z,23.52
2023-07-18T17:10:14.175Z,23.63
2023-07-18T17:12:42.510Z,23.66
2023-07-18T17:15:14.362Z,23.70
2023-07-18T17:17:42.663Z,23.78
2023-07-18T17:20:14.336Z,23.87
2023-07-18T17:22:43.064Z,23.96
2023-07-18T17:25:11.619Z,24.00
2023-07-18T17:27:39.880Z,24.09
2023-07-18T17:30:09.462Z,24.18
2023-07-18T17:32:38.462Z,24.36
2023-07-18T17:35:07.176Z,24.42
2023-07-18T17:37:35.618Z,24.46
2023-07-18T17:40:04.512Z,24.51
2023-07-18T17:42:32.754Z,24.55
2023-07-18T17:45:01.018Z,24.66
2023-07-18T17:47:29.759Z,24.81
2023-07-18T17:49:58.032Z,24.93
2023-07-18T17:52:27.886Z,25.00
2023-07-18T17:54:56.197Z,25.00
2023-07-18T17:57:25.477Z,25.01
2023-07-18T17:59:54.352Z,24.97
2023-07-18T18:02:22.740Z,25.03
2023-07-18T18:04:52.108Z,25.18
2023-07-18T18:07:20.417Z,25.41
2023-07-18T18:09:49.187Z,25.49
2023-07-18T18:12:17.497Z,25.62
2023-07-18T18:14:46.100Z,25.69
2023-07-18T18:17:14.374Z,25.78
2023-07-18T18:19:42.745Z,25.94
2023-07-18T18:22:11.420Z,25.99
2023-07-18T18:24:39.802Z,25.99
2023-07-18T18:27:08.690Z,25.97
2023-07-18T18:29:36.958Z,25.96
2023-07-18T18:32:06.560Z,26.08
2023-07-18T18:34:34.833Z,26.15
2023-07-18T18:37:03.095Z,26.30
2023-07-18T18:39:31.376Z,26.30
2023-07-18T18:41:59.749Z,26.29
2023-07-18T18:44:28.048Z,26.33
2023-07-18T18:46:56.572Z,26.49
2023-07-18T18:49:27.224Z,26.65
2023-07-18T18:51:56.579Z,26.76
2023-07-18T18:54:24.988Z,26.63
2023-07-18T18:56:54.704Z,26.61
2023-07-18T18:59:23.123Z,26.69
2023-07-18T19:01:52.072Z,26.69
2023-07-18T19:04:20.531Z,26.77
2023-07-18T19:06:48.838Z,26.89
2023-07-18T19:09:17.181Z,26.95
2023-07-18T19:11:45.430Z,27.16
2023-07-18T19:14:13.755Z,27.25
2023-07-18T19:16:42.115Z,27.26
2023-07-18T19:19:12.569Z,27.29
2023-07-18T19:21:40.777Z,27.37
2023-07-18T19:24:09.110Z,27.50
2023-07-18T19:26:37.464Z,27.64
2023-07-18T19:29:05.766Z,27.62
2023-07-18T19:31:34.121Z,27.61
2023-07-18T19:34:02.466Z,27.68
2023-07-18T19:36:30.736Z,27.77
2023-07-18T19:38:59.033Z,27.77
2023-07-18T19:41:27.319Z,27.78
2023-07-18T19:43:55.669Z,27.86
2023-07-18T19:46:24.833Z,27.89
2023-07-18T19:48:53.124Z,28.10
2023-07-18T19:51:22.376Z,28.23
2023-07-18T19:53:50.831Z,28.27
2023-07-18T19:56:19.145Z,28.35
2023-07-18T19:58:47.389Z,28.17
2023-07-18T20:01:17.357Z,28.23
2023-07-18T20:03:58.658Z,28.30
2023-07-18T20:06:29.856Z,28.34
2023-07-18T20:08:58.842Z,28.33
2023-07-18T20:11:27.145Z,28.41
2023-07-18T20:13:55.646Z,28.43
2023-07-18T20:16:24.001Z,28.35
2023-07-18T20:18:56.301Z,28.52
2023-07-18T20:21:27.131Z,28.54
2023-07-18T20:23:55.440Z,28.61
2023-07-18T20:26:24.024Z,28.74
2023-07-18T20:28:52.402Z,28.98
2023-07-18T20:31:21.179Z,29.01
2023-07-18T20:33:50.718Z,29.10
2023-07-18T20:36:18.980Z,29.14
2023-07-18T20:38:48.159Z,29.11
2023-07-18T20:41:16.663Z,29.20
2023-07-18T20:43:44.902Z,29.30
2023-07-18T20:46:14.982Z,29.54
2023-07-18T20:48:43.275Z,29.61
2023-07-18T20:51:11.612Z,29.72
2023-07-18T20:53:39.991Z,29.96
2023-07-18T20:56:08.576Z,29.82
2023-07-18T20:58:37.039Z,29.75
2023-07-18T21:01:05.568Z,29.79
2023-07-18T21:03:33.965Z,30.02
2023-07-18T21:06:02.336Z,30.09
2023-07-18T21:08:30.665Z,30.14
2023-07-18T21:10:58.994Z,30.30
2023-07-18T21:13:27.371Z,30.35
2023-07-18T21:15:55.694Z,30.39
2023-07-18T21:18:23.995Z,30.35
2023-07-18T21:20:52.278Z,30.42
2023-07-18T21:23:22.198Z,30.55
2023-07-18T21:25:50.776Z,30.73
2023-07-18T21:28:19.039Z,30.95
2023-07-18T21:30:47.321Z,30.88
2023-07-18T21:33:15.528Z,30.90
2023-07-18T21:35:43.782Z,30.92
2023-07-18T21:38:12.029Z,30.95
2023-07-18T21:40:40.271Z,31.20
2023-07-18T21:43:08.746Z,31.22
2023-07-18T21:45:37.451Z,31.05
2023-07-18T21:48:06.025Z,31.04
2023-07-18T21:50:34.354Z,31.00
2023-07-18T21:53:02.641Z,31.04
2023-07-18T21:55:31.006Z,31.15
2023-07-18T21:57:59.287Z,31.17
2023-07-18T22:00:27.591Z,31.31
2023-07-18T22:02:57.031Z,31.33
2023-07-18T22:05:25.597Z,31.58
2023-07-18T22:07:53.790Z,31.79
2023-07-18T22:10:22.117Z,31.65
2023-07-18T22:12:50.371Z,31.69
2023-07-18T22:15:20.740Z,31.82
2023-07-18T22:17:50.089Z,31.74
2023-07-18T22:20:18.414Z,31.66
2023-07-18T22:22:46.683Z,31.39
2023-07-18T22:25:14.971Z,31.36
2023-07-18T22:27:43.283Z,31.53
2023-07-18T22:30:11.828Z,31.47
2023-07-18T22:32:40.078Z,31.19
2023-07-18T22:35:09.049Z,31.13
2023-07-18T22:37:37.787Z,31.03
2023-07-18T22:40:06.482Z,31.10
2023-07-18T22:42:34.771Z,31.04
2023-07-18T22:45:03.000Z,31.03
2023-07-18T22:47:31.263Z,30.90
2023-07-18T22:49:59.486Z,30.82
2023-07-18T22:52:27.745Z,30.59
2023-07-18T22:54:55.996Z,30.49
2023-07-18T22:57:24.590Z,30.21
2023-07-18T22:59:53.749Z,30.08
2023-07-18T23:02:22.264Z,30.06
2023-07-18T23:04:50.645Z,30.09
2023-07-18T23:07:18.868Z,30.02
2023-07-18T23:09:47.166Z,29.77
2023-07-18T23:12:17.054Z,29.57
2023-07-18T23:14:45.376Z,29.51
2023-07-18T23:17:15.198Z,29.27
2023-07-18T23:19:44.044Z,29.06
2023-07-18T23:22:12.304Z,28.78
2023-07-18T23:24:40.580Z,28.69
2023-07-18T23:27:09.085Z,28.48
2023-07-18T23:29:37.398Z,28.30
2023-07-18T23:32:05.864Z,28.16
2023-07-18T23:34:34.167Z,28.10
2023-07-18T23:37:02.432Z,28.00
2023-07-18T23:39:30.720Z,27.92
2023-07-18T23:41:58.930Z,27.76
2023-07-18T23:44:27.172Z,27.74
2023-07-18T23:46:55.449Z,27.66
2023-07-18T23:49:23.784Z,27.59
2023-07-18T23:51:52.173Z,27.43
2023-07-18T23:54:20.413Z,27.34
2023-07-18T23:56:48.618Z,27.25
2023-07-18T23:59:17.950Z,27.13
